sensor_id;sensor_type;location;lat;lon;timestamp;pressure;altitude;pressure_sealevel;temperature;humidity
77431;BME280;66498;48.564;19.272;2023-03-01T00:00:39;98584.06;;;-0.97;79.91
77431;BME280;66498;48.564;19.272;2023-03-01T00:03:04;98581.66;;;-1.10;80.03
77431;BME280;66498;48.564;19.272;2023-03-01T00:05:30;98578.06;;;-1.18;80.42
77431;BME280;66498;48.564;19.272;2023-03-01T00:07:55;98583.00;;;-0.94;79.82
77431;BME280;66498;48.564;19.272;2023-03-01T00:10:21;98574.16;;;-0.81;78.83
77431;BME280;66498;48.564;19.272;2023-03-01T00:12:46;98569.63;;;-0.88;79.33
77431;BME280;66498;48.564;19.272;2023-03-01T00:15:12;98574.34;;;-0.93;79.55
77431;BME280;66498;48.564;19.272;2023-03-01T00:17:37;98581.25;;;-0.94;80.04
77431;BME280;66498;48.564;19.272;2023-03-01T00:20:03;98578.69;;;-0.94;80.38
77431;BME280;66498;48.564;19.272;2023-03-01T00:22:33;98577.97;;;-0.96;80.30
77431;BME280;66498;48.564;19.272;2023-03-01T00:24:58;98576.63;;;-0.79;79.42
77431;BME280;66498;48.564;19.272;2023-03-01T00:27:23;98567.63;;;-0.85;79.56
77431;BME280;66498;48.564;19.272;2023-03-01T00:29:49;98559.56;;;-0.91;80.17
77431;BME280;66498;48.564;19.272;2023-03-01T00:32:14;98551.22;;;-0.84;80.18
77431;BME280;66498;48.564;19.272;2023-03-01T00:34:40;98554.34;;;-1.12;80.97
77431;BME280;66498;48.564;19.272;2023-03-01T00:37:05;98550.53;;;-1.18;81.47
77431;BME280;66498;48.564;19.272;2023-03-01T00:39:31;98555.59;;;-1.28;81.77
77431;BME280;66498;48.564;19.272;2023-03-01T00:41:58;98558.53;;;-1.32;81.74
77431;BME280;66498;48.564;19.272;2023-03-01T00:44:23;98556.09;;;-1.45;82.25
77431;BME280;66498;48.564;19.272;2023-03-01T00:46:49;98554.16;;;-1.21;81.60
77431;BME280;66498;48.564;19.272;2023-03-01T00:49:14;98553.69;;;-1.14;81.44
77431;BME280;66498;48.564;19.272;2023-03-01T00:51:40;98552.94;;;-1.05;81.06
77431;BME280;66498;48.564;19.272;2023-03-01T00:54:09;98549.84;;;-0.88;80.25
77431;BME280;66498;48.564;19.272;2023-03-01T00:56:35;98544.88;;;-0.80;79.82
77431;BME280;66498;48.564;19.272;2023-03-01T00:59:01;98541.78;;;-0.74;80.12
77431;BME280;66498;48.564;19.272;2023-03-01T01:01:28;98538.06;;;-1.02;81.40
77431;BME280;66498;48.564;19.272;2023-03-01T01:04:03;98524.53;;;-0.94;81.12
77431;BME280;66498;48.564;19.272;2023-03-01T01:06:43;98529.06;;;-0.86;80.73
77431;BME280;66498;48.564;19.272;2023-03-01T01:09:12;98527.69;;;-0.90;81.19
77431;BME280;66498;48.564;19.272;2023-03-01T01:11:46;98522.47;;;-0.79;80.62
77431;BME280;66498;48.564;19.272;2023-03-01T01:14:12;98515.44;;;-0.77;80.55
77431;BME280;66498;48.564;19.272;2023-03-01T01:16:38;98520.53;;;-0.66;80.30
77431;BME280;66498;48.564;19.272;2023-03-01T01:19:04;98514.38;;;-0.54;79.19
77431;BME280;66498;48.564;19.272;2023-03-01T01:21:30;98514.56;;;-0.66;79.72
77431;BME280;66498;48.564;19.272;2023-03-01T01:23:56;98511.41;;;-0.70;80.45
77431;BME280;66498;48.564;19.272;2023-03-01T01:26:26;98506.00;;;-0.67;80.26
77431;BME280;66498;48.564;19.272;2023-03-01T01:28:53;98497.47;;;-0.67;79.87
77431;BME280;66498;48.564;19.272;2023-03-01T01:31:19;98492.38;;;-0.58;78.93
77431;BME280;66498;48.564;19.272;2023-03-01T01:33:45;98494.00;;;-0.57;78.85
77431;BME280;66498;48.564;19.272;2023-03-01T01:36:11;98495.34;;;-0.32;77.18
77431;BME280;66498;48.564;19.272;2023-03-01T01:38:37;98484.34;;;-0.55;77.94
77431;BME280;66498;48.564;19.272;2023-03-01T01:41:05;98478.47;;;-0.36;77.43
77431;BME280;66498;48.564;19.272;2023-03-01T01:43:35;98473.41;;;-0.16;76.66
77431;BME280;66498;48.564;19.272;2023-03-01T01:46:14;98471.63;;;-0.16;75.87
77431;BME280;66498;48.564;19.272;2023-03-01T01:48:47;98475.94;;;-0.26;76.12
77431;BME280;66498;48.564;19.272;2023-03-01T01:51:17;98477.16;;;-0.51;76.26
77431;BME280;66498;48.564;19.272;2023-03-01T01:53:45;98484.91;;;-0.51;77.33
77431;BME280;66498;48.564;19.272;2023-03-01T01:56:15;98474.63;;;-0.72;78.32
77431;BME280;66498;48.564;19.272;2023-03-01T01:58:43;98467.13;;;-0.75;79.62
77431;BME280;66498;48.564;19.272;2023-03-01T02:01:09;98468.72;;;-0.63;78.50
77431;BME280;66498;48.564;19.272;2023-03-01T02:03:37;98467.50;;;-0.28;77.31
77431;BME280;66498;48.564;19.272;2023-03-01T02:06:28;98455.41;;;-0.58;78.81
77431;BME280;66498;48.564;19.272;2023-03-01T02:08:57;98457.69;;;-0.65;79.48
77431;BME280;66498;48.564;19.272;2023-03-01T02:11:24;98463.16;;;-0.58;78.72
77431;BME280;66498;48.564;19.272;2023-03-01T02:13:52;98459.09;;;-0.61;78.68
77431;BME280;66498;48.564;19.272;2023-03-01T02:16:18;98467.50;;;-0.59;79.39
77431;BME280;66498;48.564;19.272;2023-03-01T02:18:45;98466.69;;;-0.59;79.56
77431;BME280;66498;48.564;19.272;2023-03-01T02:21:24;98468.00;;;-0.65;79.62
77431;BME280;66498;48.564;19.272;2023-03-01T02:23:55;98464.81;;;-0.78;80.19
77431;BME280;66498;48.564;19.272;2023-03-01T02:26:38;98463.22;;;-0.49;79.30
77431;BME280;66498;48.564;19.272;2023-03-01T02:29:06;98455.72;;;-0.21;77.90
77431;BME280;66498;48.564;19.272;2023-03-01T02:31:32;98464.81;;;-0.57;80.62
77431;BME280;66498;48.564;19.272;2023-03-01T02:34:11;98462.81;;;-0.75;80.98
77431;BME280;66498;48.564;19.272;2023-03-01T02:36:40;98470.56;;;-0.75;82.26
77431;BME280;66498;48.564;19.272;2023-03-01T02:39:07;98471.94;;;-0.70;81.45
77431;BME280;66498;48.564;19.272;2023-03-01T02:41:42;98466.94;;;-0.62;81.30
77431;BME280;66498;48.564;19.272;2023-03-01T02:44:08;98468.00;;;-0.65;80.75
77431;BME280;66498;48.564;19.272;2023-03-01T02:46:42;98467.75;;;-0.62;80.97
77431;BME280;66498;48.564;19.272;2023-03-01T02:52:13;98465.41;;;-0.44;80.42
77431;BME280;66498;48.564;19.272;2023-03-01T02:54:55;98467.03;;;-0.43;80.86
77431;BME280;66498;48.564;19.272;2023-03-01T02:57:22;98475.44;;;-0.51;81.05
77431;BME280;66498;48.564;19.272;2023-03-01T02:59:49;98476.19;;;-0.60;81.41
77431;BME280;66498;48.564;19.272;2023-03-01T03:02:25;98477.47;;;-0.44;81.37
77431;BME280;66498;48.564;19.272;2023-03-01T03:07:28;98476.34;;;-0.52;81.64
77431;BME280;66498;48.564;19.272;2023-03-01T03:09:54;98471.09;;;-0.50;81.27
77431;BME280;66498;48.564;19.272;2023-03-01T03:12:19;98469.47;;;-0.41;80.82
77431;BME280;66498;48.564;19.272;2023-03-01T03:14:44;98470.75;;;-0.36;80.24
77431;BME280;66498;48.564;19.272;2023-03-01T03:17:10;98470.34;;;-0.31;79.55
77431;BME280;66498;48.564;19.272;2023-03-01T03:19:35;98469.63;;;-0.43;80.61
77431;BME280;66498;48.564;19.272;2023-03-01T03:22:01;98479.50;;;-0.48;81.11
77431;BME280;66498;48.564;19.272;2023-03-01T03:24:27;98466.13;;;-0.32;79.92
77431;BME280;66498;48.564;19.272;2023-03-01T03:27:03;98464.66;;;-0.25;79.93
77431;BME280;66498;48.564;19.272;2023-03-01T03:29:28;98464.63;;;-0.35;80.38
77431;BME280;66498;48.564;19.272;2023-03-01T03:31:54;98468.31;;;-0.37;80.49
77431;BME280;66498;48.564;19.272;2023-03-01T03:34:19;98462.03;;;-0.35;79.98
77431;BME280;66498;48.564;19.272;2023-03-01T03:36:45;98466.41;;;-0.35;78.91
77431;BME280;66498;48.564;19.272;2023-03-01T03:39:10;98465.56;;;-0.66;79.26
77431;BME280;66498;48.564;19.272;2023-03-01T03:41:35;98463.84;;;-0.56;79.55
77431;BME280;66498;48.564;19.272;2023-03-01T03:44:01;98457.69;;;-0.65;79.92
77431;BME280;66498;48.564;19.272;2023-03-01T03:46:26;98459.44;;;-0.65;79.67
77431;BME280;66498;48.564;19.272;2023-03-01T03:48:52;98467.91;;;-0.84;80.96
77431;BME280;66498;48.564;19.272;2023-03-01T03:51:18;98470.66;;;-0.76;81.02
77431;BME280;66498;48.564;19.272;2023-03-01T03:53:44;98463.09;;;-0.68;80.89
77431;BME280;66498;48.564;19.272;2023-03-01T03:56:10;98465.53;;;-0.45;80.33
77431;BME280;66498;48.564;19.272;2023-03-01T03:58:36;98464.28;;;-0.51;80.54
77431;BME280;66498;48.564;19.272;2023-03-01T04:01:02;98474.25;;;-0.67;80.70
77431;BME280;66498;48.564;19.272;2023-03-01T04:03:29;98464.31;;;-0.72;80.24
77431;BME280;66498;48.564;19.272;2023-03-01T04:05:57;98474.19;;;-0.77;81.29
77431;BME280;66498;48.564;19.272;2023-03-01T04:08:23;98475.50;;;-0.62;81.23
77431;BME280;66498;48.564;19.272;2023-03-01T04:10:57;98480.34;;;-0.68;81.49
77431;BME280;66498;48.564;19.272;2023-03-01T04:13:23;98479.91;;;-0.74;81.15
77431;BME280;66498;48.564;19.272;2023-03-01T04:15:52;98483.31;;;-0.73;81.42
77431;BME280;66498;48.564;19.272;2023-03-01T04:18:22;98483.06;;;-0.70;81.23
77431;BME280;66498;48.564;19.272;2023-03-01T04:20:48;98482.09;;;-0.69;80.93
77431;BME280;66498;48.564;19.272;2023-03-01T04:23:17;98474.75;;;-0.74;81.15
77431;BME280;66498;48.564;19.272;2023-03-01T04:25:53;98476.59;;;-0.64;80.45
77431;BME280;66498;48.564;19.272;2023-03-01T04:28:23;98470.78;;;-0.57;80.92
77431;BME280;66498;48.564;19.272;2023-03-01T04:30:50;98474.72;;;-0.53;80.91
77431;BME280;66498;48.564;19.272;2023-03-01T04:33:16;98476.19;;;-0.60;81.34
77431;BME280;66498;48.564;19.272;2023-03-01T04:35:42;98470.91;;;-0.79;82.27
77431;BME280;66498;48.564;19.272;2023-03-01T04:38:08;98484.25;;;-0.74;82.05
77431;BME280;66498;48.564;19.272;2023-03-01T04:40:33;98469.22;;;-0.69;81.61
77431;BME280;66498;48.564;19.272;2023-03-01T04:42:59;98472.28;;;-0.75;81.50
77431;BME280;66498;48.564;19.272;2023-03-01T04:45:25;98461.63;;;-0.70;81.76
77431;BME280;66498;48.564;19.272;2023-03-01T04:47:51;98468.25;;;-0.68;81.52
77431;BME280;66498;48.564;19.272;2023-03-01T04:50:19;98462.53;;;-0.72;82.53
77431;BME280;66498;48.564;19.272;2023-03-01T04:52:49;98465.69;;;-0.47;81.92
77431;BME280;66498;48.564;19.272;2023-03-01T04:55:14;98459.13;;;-0.51;82.23
77431;BME280;66498;48.564;19.272;2023-03-01T04:57:40;98466.84;;;-0.51;82.11
77431;BME280;66498;48.564;19.272;2023-03-01T05:00:09;98457.78;;;-0.45;81.84
77431;BME280;66498;48.564;19.272;2023-03-01T05:03:05;98461.97;;;-0.23;81.28
77431;BME280;66498;48.564;19.272;2023-03-01T05:05:35;98460.56;;;-0.28;81.45
77431;BME280;66498;48.564;19.272;2023-03-01T05:08:06;98461.28;;;-0.26;80.21
77431;BME280;66498;48.564;19.272;2023-03-01T05:10:34;98458.94;;;-0.29;80.01
77431;BME280;66498;48.564;19.272;2023-03-01T05:13:01;98468.09;;;-0.15;79.48
77431;BME280;66498;48.564;19.272;2023-03-01T05:15:28;98460.34;;;-0.15;79.47
77431;BME280;66498;48.564;19.272;2023-03-01T05:17:56;98460.75;;;-0.19;80.29
77431;BME280;66498;48.564;19.272;2023-03-01T05:20:23;98465.63;;;-0.26;80.51
77431;BME280;66498;48.564;19.272;2023-03-01T05:22:51;98458.69;;;-0.26;81.13
77431;BME280;66498;48.564;19.272;2023-03-01T05:25:17;98469.88;;;-0.15;81.19
77431;BME280;66498;48.564;19.272;2023-03-01T05:27:45;98477.13;;;0.01;80.40
77431;BME280;66498;48.564;19.272;2023-03-01T05:30:11;98465.72;;;-0.07;80.19
77431;BME280;66498;48.564;19.272;2023-03-01T05:32:44;98463.19;;;-0.18;80.54
77431;BME280;66498;48.564;19.272;2023-03-01T05:35:12;98464.59;;;-0.04;80.23
77431;BME280;66498;48.564;19.272;2023-03-01T05:37:46;98466.97;;;0.09;79.29
77431;BME280;66498;48.564;19.272;2023-03-01T05:40:21;98474.16;;;0.05;78.96
77431;BME280;66498;48.564;19.272;2023-03-01T05:42:50;98472.44;;;-0.15;80.19
77431;BME280;66498;48.564;19.272;2023-03-01T05:45:17;98482.31;;;0.01;79.53
77431;BME280;66498;48.564;19.272;2023-03-01T05:47:44;98479.97;;;-0.03;79.65
77431;BME280;66498;48.564;19.272;2023-03-01T05:50:15;98479.16;;;-0.03;79.87
77431;BME280;66498;48.564;19.272;2023-03-01T05:52:49;98472.97;;;-0.21;79.77
77431;BME280;66498;48.564;19.272;2023-03-01T05:55:20;98459.00;;;-0.19;80.38
77431;BME280;66498;48.564;19.272;2023-03-01T05:57:46;98463.09;;;-0.16;80.50
77431;BME280;66498;48.564;19.272;2023-03-01T06:00:18;98464.88;;;-0.07;79.68
77431;BME280;66498;48.564;19.272;2023-03-01T06:02:44;98461.63;;;-0.09;80.12
77431;BME280;66498;48.564;19.272;2023-03-01T06:05:11;98465.66;;;-0.16;80.13
77431;BME280;66498;48.564;19.272;2023-03-01T06:07:37;98462.97;;;-0.05;80.05
77431;BME280;66498;48.564;19.272;2023-03-01T06:10:03;98460.09;;;-0.12;79.38
77431;BME280;66498;48.564;19.272;2023-03-01T06:12:31;98466.75;;;0.31;77.99
77431;BME280;66498;48.564;19.272;2023-03-01T06:14:57;98466.06;;;0.29;77.41
77431;BME280;66498;48.564;19.272;2023-03-01T06:17:22;98465.34;;;0.27;77.33
77431;BME280;66498;48.564;19.272;2023-03-01T06:19:48;98462.78;;;0.17;77.25
77431;BME280;66498;48.564;19.272;2023-03-01T06:22:13;98466.84;;;0.10;78.71
77431;BME280;66498;48.564;19.272;2023-03-01T06:24:39;98471.16;;;0.10;78.07
77431;BME280;66498;48.564;19.272;2023-03-01T06:27:04;98462.91;;;0.26;78.37
77431;BME280;66498;48.564;19.272;2023-03-01T06:29:30;98477.72;;;0.14;78.33
77431;BME280;66498;48.564;19.272;2023-03-01T06:31:55;98470.50;;;0.08;78.71
77431;BME280;66498;48.564;19.272;2023-03-01T06:34:21;98468.50;;;0.21;77.92
77431;BME280;66498;48.564;19.272;2023-03-01T06:36:47;98471.38;;;0.47;76.96
77431;BME280;66498;48.564;19.272;2023-03-01T06:39:12;98469.34;;;0.51;76.47
77431;BME280;66498;48.564;19.272;2023-03-01T06:41:38;98473.56;;;0.52;76.17
77431;BME280;66498;48.564;19.272;2023-03-01T06:44:03;98474.91;;;0.46;76.52
77431;BME280;66498;48.564;19.272;2023-03-01T06:46:29;98472.34;;;0.56;75.73
77431;BME280;66498;48.564;19.272;2023-03-01T06:48:54;98476.28;;;0.60;75.89
77431;BME280;66498;48.564;19.272;2023-03-01T06:51:20;98468.00;;;0.66;74.79
77431;BME280;66498;48.564;19.272;2023-03-01T06:53:46;98464.47;;;0.77;74.26
77431;BME280;66498;48.564;19.272;2023-03-01T06:56:11;98466.50;;;0.54;75.05
77431;BME280;66498;48.564;19.272;2023-03-01T06:58:37;98467.19;;;0.75;75.22
77431;BME280;66498;48.564;19.272;2023-03-01T07:01:09;98463.22;;;0.90;74.18
77431;BME280;66498;48.564;19.272;2023-03-01T07:03:34;98458.22;;;0.99;74.03
77431;BME280;66498;48.564;19.272;2023-03-01T07:06:00;98467.59;;;1.00;73.46
77431;BME280;66498;48.564;19.272;2023-03-01T07:08:26;98464.34;;;0.78;74.46
77431;BME280;66498;48.564;19.272;2023-03-01T07:10:58;98462.69;;;0.77;74.84
77431;BME280;66498;48.564;19.272;2023-03-01T07:13:24;98473.03;;;0.77;73.81
77431;BME280;66498;48.564;19.272;2023-03-01T07:15:50;98463.22;;;0.81;74.83
77431;BME280;66498;48.564;19.272;2023-03-01T07:18:15;98463.34;;;1.08;72.64
77431;BME280;66498;48.564;19.272;2023-03-01T07:20:41;98464.72;;;0.93;72.74
77431;BME280;66498;48.564;19.272;2023-03-01T07:23:06;98464.41;;;1.15;71.92
77431;BME280;66498;48.564;19.272;2023-03-01T07:25:32;98458.72;;;1.12;71.56
77431;BME280;66498;48.564;19.272;2023-03-01T07:27:58;98452.75;;;1.02;71.23
77431;BME280;66498;48.564;19.272;2023-03-01T07:30:24;98455.44;;;1.29;71.03
77431;BME280;66498;48.564;19.272;2023-03-01T07:32:55;98445.75;;;1.22;71.36
77431;BME280;66498;48.564;19.272;2023-03-01T07:35:21;98448.75;;;1.27;72.26
77431;BME280;66498;48.564;19.272;2023-03-01T07:37:49;98443.22;;;1.59;69.47
77431;BME280;66498;48.564;19.272;2023-03-01T07:40:15;98446.09;;;1.83;68.93
77431;BME280;66498;48.564;19.272;2023-03-01T07:42:41;98442.69;;;1.55;70.79
77431;BME280;66498;48.564;19.272;2023-03-01T07:45:07;98444.03;;;1.59;69.15
77431;BME280;66498;48.564;19.272;2023-03-01T07:47:33;98441.53;;;1.77;69.15
77431;BME280;66498;48.564;19.272;2023-03-01T07:49:58;98436.66;;;1.92;68.61
77431;BME280;66498;48.564;19.272;2023-03-01T07:52:25;98433.41;;;1.90;69.47
77431;BME280;66498;48.564;19.272;2023-03-01T07:54:50;98437.06;;;1.97;68.09
77431;BME280;66498;48.564;19.272;2023-03-01T07:57:16;98437.38;;;2.12;67.53
77431;BME280;66498;48.564;19.272;2023-03-01T07:59:41;98434.09;;;2.10;67.85
77431;BME280;66498;48.564;19.272;2023-03-01T08:02:08;98428.75;;;2.39;66.69
77431;BME280;66498;48.564;19.272;2023-03-01T08:04:34;98428.81;;;2.47;65.83
77431;BME280;66498;48.564;19.272;2023-03-01T08:07:00;98424.91;;;2.61;65.58
77431;BME280;66498;48.564;19.272;2023-03-01T08:09:25;98426.25;;;2.65;65.48
77431;BME280;66498;48.564;19.272;2023-03-01T08:11:52;98429.56;;;2.40;67.57
77431;BME280;66498;48.564;19.272;2023-03-01T08:14:19;98431.88;;;2.43;66.25
77431;BME280;66498;48.564;19.272;2023-03-01T08:16:44;98429.56;;;2.40;66.64
77431;BME280;66498;48.564;19.272;2023-03-01T08:19:11;98433.31;;;2.27;67.94
77431;BME280;66498;48.564;19.272;2023-03-01T08:21:37;98430.16;;;2.69;67.18
77431;BME280;66498;48.564;19.272;2023-03-01T08:24:04;98426.53;;;2.80;67.43
77431;BME280;66498;48.564;19.272;2023-03-01T08:26:31;98434.94;;;3.00;67.41
77431;BME280;66498;48.564;19.272;2023-03-01T08:28:57;98432.16;;;2.75;66.47
77431;BME280;66498;48.564;19.272;2023-03-01T08:31:24;98432.84;;;2.42;67.87
77431;BME280;66498;48.564;19.272;2023-03-01T08:33:52;98439.88;;;2.67;69.03
77431;BME280;66498;48.564;19.272;2023-03-01T08:36:24;98439.63;;;2.96;68.39
77431;BME280;66498;48.564;19.272;2023-03-01T08:38:50;98435.75;;;3.00;67.18
77431;BME280;66498;48.564;19.272;2023-03-01T08:41:16;98439.69;;;3.30;66.45
77431;BME280;66498;48.564;19.272;2023-03-01T08:43:42;98440.69;;;3.29;66.11
77431;BME280;66498;48.564;19.272;2023-03-01T08:46:07;98435.16;;;3.32;66.43
77431;BME280;66498;48.564;19.272;2023-03-01T08:48:33;98432.81;;;3.47;66.24
77431;BME280;66498;48.564;19.272;2023-03-01T08:51:31;98429.03;;;3.68;64.73
77431;BME280;66498;48.564;19.272;2023-03-01T08:54:05;98427.84;;;3.54;65.30
77431;BME280;66498;48.564;19.272;2023-03-01T08:56:31;98429.00;;;4.02;63.40
77431;BME280;66498;48.564;19.272;2023-03-01T08:58:57;98422.13;;;4.51;62.22
77431;BME280;66498;48.564;19.272;2023-03-01T09:01:23;98426.06;;;4.80;59.67
77431;BME280;66498;48.564;19.272;2023-03-01T09:03:48;98413.38;;;4.53;58.52
77431;BME280;66498;48.564;19.272;2023-03-01T09:06:14;98422.97;;;4.77;58.00
77431;BME280;66498;48.564;19.272;2023-03-01T09:08:43;98420.50;;;4.50;58.35
77431;BME280;66498;48.564;19.272;2023-03-01T09:11:11;98427.16;;;4.61;57.34
77431;BME280;66498;48.564;19.272;2023-03-01T09:13:37;98424.41;;;4.71;58.57
77431;BME280;66498;48.564;19.272;2023-03-01T09:16:04;98421.97;;;4.78;57.77
77431;BME280;66498;48.564;19.272;2023-03-01T09:18:30;98418.59;;;4.69;58.44
77431;BME280;66498;48.564;19.272;2023-03-01T09:21:11;98415.81;;;4.62;58.05
77431;BME280;66498;48.564;19.272;2023-03-01T09:23:39;98427.69;;;4.97;58.06
77431;BME280;66498;48.564;19.272;2023-03-01T09:26:06;98415.09;;;5.26;58.07
77431;BME280;66498;48.564;19.272;2023-03-01T09:28:32;98413.53;;;5.16;56.46
77431;BME280;66498;48.564;19.272;2023-03-01T09:30:59;98414.00;;;5.12;56.42
77431;BME280;66498;48.564;19.272;2023-03-01T09:33:25;98410.34;;;5.45;54.78
77431;BME280;66498;48.564;19.272;2023-03-01T09:35:59;98401.63;;;5.78;53.10
77431;BME280;66498;48.564;19.272;2023-03-01T09:38:26;98407.03;;;5.68;53.99
77431;BME280;66498;48.564;19.272;2023-03-01T09:40:52;98405.28;;;5.52;55.30
77431;BME280;66498;48.564;19.272;2023-03-01T09:46:09;98401.81;;;6.15;52.01
77431;BME280;66498;48.564;19.272;2023-03-01T09:48:52;98389.41;;;5.78;54.66
77431;BME280;66498;48.564;19.272;2023-03-01T09:51:28;98383.22;;;5.79;55.32
77431;BME280;66498;48.564;19.272;2023-03-01T09:53:55;98383.94;;;5.65;55.04
77431;BME280;66498;48.564;19.272;2023-03-01T09:56:45;98379.41;;;5.98;55.26
77431;BME280;66498;48.564;19.272;2023-03-01T10:38:19;98326.22;;;6.76;49.75
77431;BME280;66498;48.564;19.272;2023-03-01T10:40:53;98321.63;;;6.55;52.61
77431;BME280;66498;48.564;19.272;2023-03-01T10:43:20;98315.09;;;6.59;51.37
77431;BME280;66498;48.564;19.272;2023-03-01T10:45:46;98315.50;;;6.86;51.82
77431;BME280;66498;48.564;19.272;2023-03-01T10:48:14;98308.19;;;6.67;53.75
77431;BME280;66498;48.564;19.272;2023-03-01T10:50:42;98299.66;;;6.87;52.21
77431;BME280;66498;48.564;19.272;2023-03-01T10:53:21;98296.16;;;7.25;51.57
77431;BME280;66498;48.564;19.272;2023-03-01T10:55:57;98289.97;;;7.11;51.59
77431;BME280;66498;48.564;19.272;2023-03-01T10:58:23;98286.00;;;7.00;52.61
77431;BME280;66498;48.564;19.272;2023-03-01T11:00:53;98284.47;;;7.21;50.33
77431;BME280;66498;48.564;19.272;2023-03-01T11:03:23;98278.72;;;7.10;50.13
77431;BME280;66498;48.564;19.272;2023-03-01T11:08:42;98273.56;;;7.17;53.80
77431;BME280;66498;48.564;19.272;2023-03-01T11:11:30;98262.19;;;7.40;49.08
77431;BME280;66498;48.564;19.272;2023-03-01T11:14:16;98260.94;;;7.35;50.54
77431;BME280;66498;48.564;19.272;2023-03-01T11:16:45;98255.91;;;7.34;48.04
77431;BME280;66498;48.564;19.272;2023-03-01T11:21:47;98244.41;;;7.50;49.58
77431;BME280;66498;48.564;19.272;2023-03-01T11:24:17;98239.94;;;7.44;51.81
77431;BME280;66498;48.564;19.272;2023-03-01T11:26:51;98239.19;;;7.65;50.71
77431;BME280;66498;48.564;19.272;2023-03-01T11:29:26;98235.31;;;7.82;50.71
77431;BME280;66498;48.564;19.272;2023-03-01T11:31:55;98222.06;;;7.83;52.35
77431;BME280;66498;48.564;19.272;2023-03-01T11:37:13;98209.50;;;8.22;51.69
77431;BME280;66498;48.564;19.272;2023-03-01T11:45:56;98194.88;;;8.27;51.13
77431;BME280;66498;48.564;19.272;2023-03-01T11:48:33;98189.06;;;8.32;51.48
77431;BME280;66498;48.564;19.272;2023-03-01T11:51:09;98198.72;;;8.32;55.40
77431;BME280;66498;48.564;19.272;2023-03-01T11:56:55;98199.78;;;8.37;51.23
77431;BME280;66498;48.564;19.272;2023-03-01T12:00:00;98185.13;;;8.15;52.04
77431;BME280;66498;48.564;19.272;2023-03-01T12:03:33;98184.50;;;8.13;51.21
77431;BME280;66498;48.564;19.272;2023-03-01T12:10:27;98175.13;;;7.97;52.72
77431;BME280;66498;48.564;19.272;2023-03-01T12:16:21;98167.50;;;8.51;54.53
77431;BME280;66498;48.564;19.272;2023-03-01T12:27:06;98146.03;;;8.69;51.93
77431;BME280;66498;48.564;19.272;2023-03-01T12:29:44;98135.22;;;8.79;50.88
77431;BME280;66498;48.564;19.272;2023-03-01T12:48:26;98120.88;;;9.30;50.17
77431;BME280;66498;48.564;19.272;2023-03-01T12:51:00;98116.66;;;9.35;48.46
77431;BME280;66498;48.564;19.272;2023-03-01T12:53:31;98114.63;;;9.17;49.07
77431;BME280;66498;48.564;19.272;2023-03-01T12:56:05;98118.16;;;8.83;48.32
77431;BME280;66498;48.564;19.272;2023-03-01T13:01:31;98112.69;;;9.66;48.38
77431;BME280;66498;48.564;19.272;2023-03-01T13:04:08;98103.22;;;9.71;49.84
77431;BME280;66498;48.564;19.272;2023-03-01T13:11:48;98090.69;;;9.80;48.75
77431;BME280;66498;48.564;19.272;2023-03-01T13:16:46;98088.69;;;9.89;47.30
77431;BME280;66498;48.564;19.272;2023-03-01T13:19:22;98079.97;;;9.95;49.63
77431;BME280;66498;48.564;19.272;2023-03-01T13:21:49;98086.44;;;10.19;49.00
77431;BME280;66498;48.564;19.272;2023-03-01T13:25:00;98085.00;;;10.30;48.39
77431;BME280;66498;48.564;19.272;2023-03-01T13:27:26;98093.06;;;10.35;50.71
77431;BME280;66498;48.564;19.272;2023-03-01T13:29:59;98096.50;;;10.29;46.76
77431;BME280;66498;48.564;19.272;2023-03-01T13:32:32;98094.25;;;10.39;47.38
77431;BME280;66498;48.564;19.272;2023-03-01T13:37:44;98086.56;;;10.51;47.56
77431;BME280;66498;48.564;19.272;2023-03-01T13:42:51;98082.31;;;10.56;46.48
77431;BME280;66498;48.564;19.272;2023-03-01T13:45:21;98076.91;;;10.31;51.86
77431;BME280;66498;48.564;19.272;2023-03-01T13:48:18;98084.19;;;10.23;48.41
77431;BME280;66498;48.564;19.272;2023-03-01T13:50:50;98069.03;;;10.38;47.65
77431;BME280;66498;48.564;19.272;2023-03-01T13:53:19;98077.09;;;10.50;48.74
77431;BME280;66498;48.564;19.272;2023-03-01T13:55:48;98075.25;;;10.50;47.38
77431;BME280;66498;48.564;19.272;2023-03-01T13:58:23;98079.25;;;10.59;48.25
77431;BME280;66498;48.564;19.272;2023-03-01T14:03:22;98078.06;;;11.00;45.38
77431;BME280;66498;48.564;19.272;2023-03-01T14:06:02;98065.50;;;10.71;47.64
77431;BME280;66498;48.564;19.272;2023-03-01T14:08:30;98064.50;;;10.65;48.22
77431;BME280;66498;48.564;19.272;2023-03-01T14:14:17;98063.47;;;10.66;46.25
77431;BME280;66498;48.564;19.272;2023-03-01T14:19:23;98061.06;;;10.64;47.94
77431;BME280;66498;48.564;19.272;2023-03-01T14:22:05;98051.09;;;10.80;46.39
77431;BME280;66498;48.564;19.272;2023-03-01T14:24:39;98050.28;;;10.79;47.10
77431;BME280;66498;48.564;19.272;2023-03-01T14:27:11;98054.78;;;10.65;46.78
77431;BME280;66498;48.564;19.272;2023-03-01T14:29:38;98053.00;;;10.59;47.81
77431;BME280;66498;48.564;19.272;2023-03-01T14:32:22;98049.22;;;10.49;49.13
77431;BME280;66498;48.564;19.272;2023-03-01T14:34:50;98051.81;;;10.55;48.29
77431;BME280;66498;48.564;19.272;2023-03-01T14:37:24;98055.81;;;10.64;46.36
77431;BME280;66498;48.564;19.272;2023-03-01T14:39:49;98060.44;;;10.69;45.78
77431;BME280;66498;48.564;19.272;2023-03-01T14:42:16;98058.47;;;10.58;46.26
77431;BME280;66498;48.564;19.272;2023-03-01T14:44:43;98056.59;;;10.72;46.80
77431;BME280;66498;48.564;19.272;2023-03-01T14:47:15;98056.63;;;10.65;47.35
77431;BME280;66498;48.564;19.272;2023-03-01T14:49:41;98054.38;;;10.69;47.39
77431;BME280;66498;48.564;19.272;2023-03-01T14:52:19;98048.00;;;10.51;48.73
77431;BME280;66498;48.564;19.272;2023-03-01T14:54:51;98035.44;;;10.60;47.91
77431;BME280;66498;48.564;19.272;2023-03-01T14:57:25;98043.69;;;10.70;46.45
77431;BME280;66498;48.564;19.272;2023-03-01T14:59:54;98048.78;;;10.58;48.30
77431;BME280;66498;48.564;19.272;2023-03-01T15:02:25;98055.97;;;10.70;46.61
77431;BME280;66498;48.564;19.272;2023-03-01T15:04:54;98048.44;;;10.41;48.75
77431;BME280;66498;48.564;19.272;2023-03-01T15:07:22;98048.84;;;10.38;48.30